Time;durP1;ratioP1;P1;durP2;ratioP2;P2;SDS_P1;SDS_P2;PMS_P1;PMS_P2;Temp;Humidity;BMP_temperature;BMP_pressure;BME280_temperature;BME280_humidity;BME280_pressure;Samples;Min_cycle;Max_cycle;Signal;HPM_P1;HPM_P2
2023/06/14 00:02:22;;;;;;;8.60;5.35;;;;;;;21.16;55.90;100272.47;8324077;28;20034;-64
2023/06/14 00:06:24;;;;;;;9.63;5.75;;;;;;;20.58;58.98;100277.97;8323748;28;20049;-64
2023/06/14 00:10:24;;;;;;;7.82;5.68;;;;;;;20.57;59.59;100288.16;8322737;28;20037;-64
2023/06/14 00:14:25;;;;;;;10.40;6.53;;;;;;;20.50;60.10;100276.31;8323750;28;20048;-64
2023/06/14 00:18:29;;;;;;;7.95;6.43;;;;;;;20.27;61.08;100285.97;8321795;28;20295;-64
2023/06/14 00:22:30;;;;;;;10.68;6.22;;;;;;;20.07;62.71;100294.13;8322864;28;20065;-64
2023/06/14 00:26:31;;;;;;;8.35;6.63;;;;;;;19.73;64.87;100293.41;8323600;28;20124;-64
2023/06/14 00:30:31;;;;;;;9.93;6.75;;;;;;;19.49;65.94;100295.59;8323154;28;20045;-64
2023/06/14 00:34:32;;;;;;;8.77;7.28;;;;;;;19.58;65.73;100303.69;8323024;28;20048;-64
2023/06/14 00:38:32;;;;;;;10.85;6.82;;;;;;;19.57;65.37;100299.25;8312063;28;20050;-64
2023/06/14 00:42:33;;;;;;;7.95;6.68;;;;;;;19.05;68.76;100305.22;8307447;28;20076;-64
2023/06/14 00:46:33;;;;;;;8.93;8.02;;;;;;;18.38;72.49;100299.38;8306118;28;20365;-64
2023/06/14 00:50:35;;;;;;;13.98;8.00;;;;;;;18.53;72.55;100300.16;8308388;28;20033;-64
2023/06/14 00:54:35;;;;;;;14.02;7.60;;;;;;;18.39;72.89;100306.56;8305519;28;20037;-64
2023/06/14 00:58:38;;;;;;;10.35;7.47;;;;;;;18.35;72.02;100310.69;8308160;28;20045;-64
2023/06/14 01:02:38;;;;;;;10.07;7.22;;;;;;;18.21;73.72;100311.59;8305425;28;20511;-64
2023/06/14 01:07:03;;;;;;;10.15;7.30;;;;;;;17.97;75.28;100313.84;8305810;28;20492;-64
2023/06/14 01:11:12;;;;;;;11.50;8.55;;;;;;;17.89;75.26;100317.56;8274209;28;20034;-64
2023/06/14 01:15:13;;;;;;;10.40;7.78;;;;;;;18.02;73.43;100319.59;8274378;28;20030;-64
2023/06/14 01:19:15;;;;;;;11.30;7.97;;;;;;;17.72;75.21;100316.09;8275190;28;20489;-65
2023/06/14 01:23:17;;;;;;;9.57;7.63;;;;;;;17.87;75.46;100330.56;8270599;28;20038;-65
2023/06/14 01:27:18;;;;;;;13.15;7.63;;;;;;;17.45;77.46;100325.00;8307951;28;20042;-65
2023/06/14 01:31:22;;;;;;;10.20;7.85;;;;;;;17.58;77.40;100330.63;8305973;28;20123;-64
2023/06/14 01:35:24;;;;;;;9.98;7.30;;;;;;;17.68;75.41;100336.63;8306702;28;20508;-65
2023/06/14 01:39:25;;;;;;;11.48;7.50;;;;;;;17.86;75.40;100336.22;8305350;28;20519;-65
2023/06/14 01:43:27;;;;;;;8.23;7.32;;;;;;;17.78;76.05;100337.19;8306423;28;20037;-65
2023/06/14 01:47:27;;;;;;;13.90;8.38;;;;;;;17.16;77.59;100338.59;8307283;28;20037;-67
2023/06/14 01:51:28;;;;;;;9.93;7.30;;;;;;;17.10;78.04;100342.06;8303755;28;20522;-67
2023/06/14 01:55:28;;;;;;;9.57;7.15;;;;;;;17.19;77.32;100330.03;8322292;28;20061;-66
2023/06/14 01:59:31;;;;;;;12.68;8.57;;;;;;;16.88;79.32;100332.06;8306733;28;20404;-66
2023/06/14 02:03:32;;;;;;;9.27;8.15;;;;;;;17.07;79.22;100328.78;8307160;28;20037;-66
2023/06/14 02:07:33;;;;;;;14.63;8.75;;;;;;;17.13;78.58;100325.31;8303138;28;20081;-66
2023/06/14 02:11:33;;;;;;;13.30;8.00;;;;;;;16.76;79.38;100330.81;8307995;28;20033;-61
2023/06/14 02:15:34;;;;;;;9.75;8.20;;;;;;;16.56;81.33;100333.19;8312571;28;20037;-67
2023/06/14 02:19:35;;;;;;;13.48;9.35;;;;;;;16.54;81.52;100334.41;8313217;28;20038;-66
2023/06/14 02:23:39;;;;;;;12.50;8.48;;;;;;;16.30;82.98;100326.38;8312214;28;20034;-66
2023/06/14 02:27:40;;;;;;;10.15;8.93;;;;;;;16.40;82.24;100329.72;8313258;28;20404;-67
2023/06/14 02:31:40;;;;;;;12.52;9.10;;;;;;;16.44;81.92;100334.66;8311356;28;20128;-66
2023/06/14 02:35:41;;;;;;;10.85;8.85;;;;;;;16.37;82.23;100338.25;8313270;28;20052;-67
2023/06/14 02:39:41;;;;;;;13.05;9.00;;;;;;;16.20;82.65;100342.16;8310351;28;20449;-66
2023/06/14 02:43:43;;;;;;;11.77;9.20;;;;;;;16.14;82.94;100338.28;8312751;28;20041;-66
2023/06/14 02:47:43;;;;;;;15.32;9.60;;;;;;;16.10;82.81;100349.72;8311925;28;20108;-66
2023/06/14 02:51:46;;;;;;;12.82;10.00;;;;;;;16.05;83.46;100339.34;8310159;28;20041;-65
2023/06/14 02:55:48;;;;;;;14.13;10.48;;;;;;;15.85;84.04;100350.91;8312865;28;20044;-61
2023/06/14 02:59:49;;;;;;;15.45;10.57;;;;;;;16.14;82.17;100341.00;8311456;28;20045;-61
2023/06/14 03:03:49;;;;;;;16.30;10.57;;;;;;;16.09;82.96;100345.28;8311903;28;20554;-61
2023/06/14 03:07:50;;;;;;;13.77;10.55;;;;;;;15.93;83.65;100354.44;8312632;28;20046;-60
2023/06/14 03:11:52;;;;;;;15.23;10.27;;;;;;;15.94;83.62;100357.97;8309929;28;20520;-66
2023/06/14 03:15:52;;;;;;;17.17;10.98;;;;;;;15.91;84.33;100370.09;8310165;28;20091;-66
2023/06/14 03:19:54;;;;;;;14.38;10.38;;;;;;;16.09;82.17;100361.66;8311223;28;20122;-67
2023/06/14 03:23:55;;;;;;;15.82;10.52;;;;;;;15.69;84.19;100363.56;8308175;28;20513;-67
2023/06/14 03:27:56;;;;;;;14.38;10.70;;;;;;;15.59;84.65;100365.63;8308081;28;20393;-66
2023/06/14 03:31:59;;;;;;;15.40;10.60;;;;;;;15.69;84.61;100373.63;8312289;28;20060;-66
2023/06/14 03:36:06;;;;;;;14.13;9.68;;;;;;;15.67;85.46;100368.34;8309070;28;20112;-66
2023/06/14 03:40:08;;;;;;;13.02;9.65;;;;;;;15.65;86.48;100367.66;8309232;28;20037;-66
2023/06/14 03:44:17;;;;;;;12.55;10.65;;;;;;;15.55;87.50;100380.66;8311850;28;20088;-66
2023/06/14 03:48:18;;;;;;;13.17;10.30;;;;;;;15.57;86.26;100380.47;8308706;28;20037;-66
2023/06/14 03:52:19;;;;;;;13.80;10.18;;;;;;;15.90;84.10;100378.47;8309006;28;20038;-66
2023/06/14 03:56:21;;;;;;;14.10;9.88;;;;;;;15.95;86.24;100381.50;8309164;28;20038;-66
2023/06/14 04:00:23;;;;;;;15.20;9.85;;;;;;;16.03;85.15;100378.72;8309764;28;20033;-66
2023/06/14 04:04:28;;;;;;;12.77;10.75;;;;;;;15.81;86.03;100376.78;8306560;28;20144;-66
2023/06/14 04:08:30;;;;;;;11.88;10.55;;;;;;;16.11;84.63;100381.41;8306120;28;20049;-66
2023/06/14 04:12:33;;;;;;;12.82;9.68;;;;;;;16.29;83.78;100395.63;8307874;28;20079;-66
2023/06/14 04:16:34;;;;;;;13.60;10.35;;;;;;;16.49;83.77;100392.28;8305079;28;20034;-67
2023/06/14 04:20:35;;;;;;;12.38;10.13;;;;;;;16.70;82.57;100397.06;8314433;28;20110;-66
2023/06/14 04:24:37;;;;;;;15.57;11.52;;;;;;;16.63;82.90;100405.16;8303232;28;20041;-66
2023/06/14 04:28:40;;;;;;;13.68;10.80;;;;;;;16.64;84.89;100408.72;8312114;28;20038;-61
2023/06/14 04:32:42;;;;;;;14.32;11.05;;;;;;;17.09;81.63;100405.94;8309384;28;20563;-60
2023/06/14 04:36:49;;;;;;;15.02;11.32;;;;;;;17.21;84.21;100409.94;8313346;28;20042;-66
2023/06/14 04:40:52;;;;;;;16.85;11.23;;;;;;;17.15;83.33;100416.13;8291303;28;20049;-66
2023/06/14 04:44:55;;;;;;;14.23;10.67;;;;;;;17.54;80.62;100417.63;8309490;28;20442;-61
2023/06/14 04:49:02;;;;;;;24.52;11.18;;;;;;;17.68;81.94;100418.66;8310817;28;20045;-61
2023/06/14 04:53:03;;;;;;;28.52;11.57;;;;;;;18.11;78.86;100419.69;8302674;28;20128;-61
2023/06/14 04:57:05;;;;;;;19.20;12.05;;;;;;;18.40;77.02;100425.13;8297495;28;20540;-66
2023/06/14 05:01:09;;;;;;;14.90;10.88;;;;;;;18.79;76.97;100426.38;8303975;28;20049;-66
2023/06/14 05:05:10;;;;;;;15.35;11.20;;;;;;;18.96;76.22;100426.97;8300678;28;20045;-66
2023/06/14 05:09:13;;;;;;;12.80;11.23;;;;;;;18.97;75.33;100435.00;8302664;28;20052;-66
2023/06/14 05:13:13;;;;;;;14.55;10.15;;;;;;;19.51;74.85;100431.69;8303885;28;20504;-68
2023/06/14 05:17:16;;;;;;;12.05;9.32;;;;;;;19.87;71.08;100437.81;8302648;28;20511;-67
2023/06/14 05:21:18;;;;;;;14.77;9.63;;;;;;;20.03;70.72;100440.25;8298921;28;20025;-68
2023/06/14 05:25:20;;;;;;;14.48;9.52;;;;;;;20.26;71.22;100443.56;8300880;28;20026;-58
2023/06/14 05:29:20;;;;;;;10.90;9.30;;;;;;;20.43;68.52;100450.41;8304797;28;20508;-58
2023/06/14 05:33:21;;;;;;;13.37;9.20;;;;;;;20.68;67.46;100448.78;8303234;28;20410;-58
2023/06/14 05:37:21;;;;;;;11.07;7.38;;;;;;;20.98;66.57;100461.16;8305717;28;20435;-58
2023/06/14 05:41:22;;;;;;;11.85;7.10;;;;;;;21.26;66.06;100445.31;8301467;28;20034;-58
2023/06/14 05:45:22;;;;;;;7.97;5.10;;;;;;;21.45;61.46;100452.69;8304546;28;20029;-59
2023/06/14 05:49:23;;;;;;;7.65;5.05;;;;;;;21.82;61.42;100465.81;8302220;28;20334;-59
2023/06/14 05:53:23;;;;;;;6.28;3.47;;;;;;;21.87;57.75;100473.44;8300430;28;20038;-60
2023/06/14 05:57:23;;;;;;;11.97;4.40;;;;;;;22.08;57.45;100476.75;8303619;28;20120;-59
2023/06/14 06:01:25;;;;;;;8.65;4.45;;;;;;;22.10;54.85;100480.16;8302099;28;20303;-60
2023/06/14 06:05:25;;;;;;;7.10;3.85;;;;;;;22.25;55.70;100482.66;8301748;28;20408;-59
2023/06/14 06:09:25;;;;;;;7.28;4.20;;;;;;;22.41;54.84;100477.50;8303990;28;20116;-60
2023/06/14 06:13:26;;;;;;;5.45;3.40;;;;;;;22.34;53.95;100487.72;8304066;28;20041;-60
2023/06/14 06:17:26;;;;;;;9.00;3.50;;;;;;;22.41;54.90;100488.53;8305330;28;20049;-59
2023/06/14 06:21:27;;;;;;;5.30;3.78;;;;;;;22.54;53.64;100499.53;8301283;28;20048;-60
2023/06/14 06:25:27;;;;;;;7.88;3.22;;;;;;;22.64;53.37;100499.94;8304631;28;20099;-59
2023/06/14 06:29:28;;;;;;;6.05;3.90;;;;;;;22.70;53.77;100499.06;8304240;28;20415;-59
2023/06/14 06:33:28;;;;;;;5.50;4.05;;;;;;;22.83;52.84;100495.34;8303282;28;20066;-61
2023/06/14 06:37:29;;;;;;;6.95;4.00;;;;;;;22.92;53.01;100511.44;8305170;28;20025;-60
2023/06/14 06:41:29;;;;;;;10.55;3.28;;;;;;;23.13;52.76;100516.63;8301395;28;20048;-60
2023/06/14 06:45:30;;;;;;;10.90;3.80;;;;;;;23.35;53.23;100524.56;8302730;28;20754;-59
2023/06/14 06:49:31;;;;;;;5.25;3.30;;;;;;;23.51;51.42;100535.06;8304273;28;20211;-59
2023/06/14 06:53:31;;;;;;;10.00;3.53;;;;;;;23.74;51.53;100518.72;8305369;28;20354;-59
2023/06/14 06:57:32;;;;;;;4.57;3.20;;;;;;;23.73;51.46;100528.09;8303407;28;20038;-59
2023/06/14 07:01:33;;;;;;;9.52;3.25;;;;;;;23.71;50.62;100524.69;8310169;28;20049;-59
2023/06/14 07:05:34;;;;;;;4.38;2.80;;;;;;;23.80;51.80;100528.88;8308280;28;20041;-59
2023/06/14 07:09:34;;;;;;;8.38;3.42;;;;;;;23.92;51.73;100538.13;8305317;28;20045;-59
2023/06/14 07:13:35;;;;;;;7.30;3.42;;;;;;;24.04;50.68;100533.56;8302894;28;20069;-59
2023/06/14 07:17:37;;;;;;;7.93;3.40;;;;;;;24.21;50.58;100538.28;8306065;28;21085;-59
2023/06/14 07:21:38;;;;;;;7.40;3.17;;;;;;;24.22;50.50;100540.00;8305867;28;20092;-60
2023/06/14 07:25:38;;;;;;;4.57;3.05;;;;;;;24.41;50.24;100535.31;8307838;28;20037;-59
2023/06/14 07:29:39;;;;;;;6.88;2.70;;;;;;;24.42;49.74;100535.06;8305980;28;20049;-59
2023/06/14 07:33:41;;;;;;;9.90;4.22;;;;;;;24.31;48.37;100548.81;8310114;28;20451;-59
2023/06/14 07:37:41;;;;;;;5.63;2.50;;;;;;;24.45;48.29;100544.81;8306870;28;20042;-59
2023/06/14 07:41:42;;;;;;;3.42;2.88;;;;;;;24.39;49.71;100540.19;8311775;28;20076;-59
2023/06/14 07:45:42;;;;;;;4.72;2.63;;;;;;;24.33;49.05;100549.41;8323048;28;20496;-60
2023/06/14 07:49:43;;;;;;;3.67;2.20;;;;;;;24.61;48.65;100547.81;8324075;28;20056;-65
2023/06/14 07:53:43;;;;;;;6.75;3.10;;;;;;;24.47;49.57;100545.44;8323126;28;20045;-66
2023/06/14 07:57:44;;;;;;;8.63;2.45;;;;;;;24.74;48.02;100538.56;8322743;28;20060;-66
2023/06/14 08:01:46;;;;;;;6.57;2.25;;;;;;;24.70;48.74;100538.16;8311081;28;20045;-66
2023/06/14 08:05:47;;;;;;;4.75;2.40;;;;;;;24.82;48.72;100543.75;8306163;28;20041;-65
2023/06/14 08:09:47;;;;;;;6.20;2.60;;;;;;;24.80;48.26;100543.16;8305388;28;20132;-65
2023/06/14 08:13:48;;;;;;;6.20;2.78;;;;;;;24.98;47.98;100538.44;8305634;28;20068;-65
2023/06/14 08:17:48;;;;;;;2.92;2.45;;;;;;;25.37;48.01;100537.06;8307539;28;20034;-66
2023/06/14 08:21:49;;;;;;;5.10;2.65;;;;;;;25.66;48.24;100533.41;8304345;28;20045;-66
2023/06/14 08:25:50;;;;;;;5.38;2.40;;;;;;;25.46;47.06;100543.94;8307549;28;20124;-66
2023/06/14 08:29:51;;;;;;;3.90;2.15;;;;;;;25.42;47.28;100536.34;8307635;28;20061;-65
2023/06/14 08:33:51;;;;;;;5.15;2.40;;;;;;;25.74;46.94;100540.53;8303611;28;20465;-66
2023/06/14 08:37:53;;;;;;;4.40;2.42;;;;;;;25.73;47.00;100533.28;8303672;28;20515;-66
2023/06/14 08:41:54;;;;;;;5.00;2.03;;;;;;;25.73;45.97;100539.66;8305763;28;20037;-66
2023/06/14 08:46:00;;;;;;;6.78;2.40;;;;;;;25.87;45.66;100535.59;8306957;28;20246;-66
2023/06/14 08:50:00;;;;;;;5.30;2.50;;;;;;;25.91;44.85;100525.72;8308440;28;20334;-65
2023/06/14 08:54:01;;;;;;;3.28;2.15;;;;;;;26.16;44.84;100529.13;8303447;28;20164;-65
2023/06/14 08:58:03;;;;;;;17.02;2.53;;;;;;;25.92;44.56;100530.16;8307485;28;20042;-65
2023/06/14 09:02:03;;;;;;;2.50;1.88;;;;;;;26.08;44.88;100515.66;8306701;28;20033;-65
2023/06/14 09:06:04;;;;;;;8.90;2.03;;;;;;;26.15;45.25;100521.91;8307162;28;20029;-65
2023/06/14 09:10:10;;;;;;;4.57;1.70;;;;;;;25.91;44.86;100525.72;8307795;28;20052;-65
2023/06/14 09:14:11;;;;;;;4.47;1.88;;;;;;;26.15;45.12;100527.44;8321207;28;20128;-66
2023/06/14 09:18:11;;;;;;;5.47;1.80;;;;;;;26.10;43.41;100523.72;8308709;28;20037;-65
2023/06/14 09:22:12;;;;;;;2.03;1.45;;;;;;;26.79;41.90;100518.94;8303541;28;20041;-65
2023/06/14 09:26:15;;;;;;;3.55;1.35;;;;;;;26.74;39.74;100520.75;8306795;28;20463;-65
2023/06/14 09:30:19;;;;;;;1.70;1.30;;;;;;;26.96;39.89;100512.59;8308189;28;20045;-60
2023/06/14 09:34:23;;;;;;;8.05;1.48;;;;;;;26.98;39.27;100527.91;8305450;28;20100;-65
2023/06/14 09:38:24;;;;;;;1.67;1.15;;;;;;;26.85;38.14;100528.19;8308197;28;20053;-65
2023/06/14 09:42:25;;;;;;;3.05;1.30;;;;;;;27.14;39.69;100532.66;8305901;28;20045;-67
2023/06/14 09:46:27;;;;;;;3.95;1.48;;;;;;;27.52;39.04;100523.69;8306937;28;20456;-60
2023/06/14 09:50:27;;;;;;;3.58;1.30;;;;;;;27.28;38.20;100527.69;8306958;28;20163;-60
2023/06/14 09:54:29;;;;;;;3.85;1.50;;;;;;;27.03;39.08;100529.94;8304864;28;20037;-60
2023/06/14 09:58:32;;;;;;;3.30;1.60;;;;;;;27.52;37.03;100524.53;8305500;28;20033;-60
2023/06/14 10:02:37;;;;;;;4.47;1.20;;;;;;;28.22;37.67;100530.44;8306776;28;20037;-60
2023/06/14 10:06:41;;;;;;;1.95;1.10;;;;;;;29.20;36.87;100522.91;8306473;28;20037;-60
2023/06/14 10:10:42;;;;;;;;;;;;;;;30.52;35.69;100525.75;8305357;28;20420;-60
2023/06/14 10:14:43;;;;;;;1.42;1.30;;;;;;;30.81;35.67;100521.44;8303585;28;19927;-60
2023/06/14 10:18:51;;;;;;;3.78;1.42;;;;;;;30.98;35.58;100527.66;8310241;28;20496;-61
2023/06/14 10:23:01;;;;;;;1.88;1.58;;;;;;;32.22;34.59;100523.38;8316578;28;20046;-60
2023/06/14 10:27:02;;;;;;;6.20;1.75;;;;;;;32.72;32.56;100514.84;8316274;28;20450;-61
2023/06/14 10:31:12;;;;;;;2.72;1.30;;;;;;;32.93;33.69;100526.88;8317841;28;20037;-60
2023/06/14 10:35:16;;;;;;;4.43;1.50;;;;;;;33.55;33.08;100511.09;8320871;28;20033;-60
2023/06/14 10:39:17;;;;;;;2.05;1.35;;;;;;;33.14;32.55;100511.59;8308363;28;20037;-62
2023/06/14 10:43:23;;;;;;;3.15;1.60;;;;;;;32.56;33.29;100504.84;8306339;28;20034;-60
2023/06/14 10:47:28;;;;;;;2.25;1.75;;;;;;;32.90;33.49;100508.66;8307675;28;20411;-60
2023/06/14 10:51:30;;;;;;;2.78;1.58;;;;;;;34.22;33.29;100512.22;8303956;28;20455;-60
2023/06/14 10:55:35;;;;;;;2.30;1.58;;;;;;;34.05;32.96;100503.44;8305673;28;20483;-66
2023/06/14 10:59:37;;;;;;;2.00;1.42;;;;;;;33.29;33.86;100509.56;8309030;28;20045;-66
2023/06/14 11:03:53;;;;;;;2.45;1.50;;;;;;;33.05;33.48;100505.78;8306239;28;20035;-65
2023/06/14 11:08:33;;;;;;;3.67;1.52;;;;;;;34.28;33.61;100505.41;8305475;28;20046;-66
2023/06/14 11:12:36;;;;;;;4.65;1.63;;;;;;;33.30;34.08;100516.81;8305989;28;20444;-66
2023/06/14 11:16:37;;;;;;;4.18;1.60;;;;;;;33.00;35.50;100500.22;8307956;28;20534;-66
2023/06/14 11:20:37;;;;;;;5.15;1.80;;;;;;;32.96;35.26;100507.50;8307609;28;20421;-65
2023/06/14 11:24:38;;;;;;;2.20;1.40;;;;;;;32.54;35.17;100495.91;8303895;28;20034;-66
2023/06/14 11:28:40;;;;;;;3.75;1.55;;;;;;;32.60;35.64;100494.75;8303483;28;20045;-66
2023/06/14 11:32:40;;;;;;;4.15;1.77;;;;;;;32.64;35.69;100495.00;8305678;28;20034;-66
2023/06/14 11:36:41;;;;;;;3.03;1.55;;;;;;;32.89;34.39;100498.56;8307777;28;20060;-66
2023/06/14 11:40:42;;;;;;;1.80;1.48;;;;;;;32.74;35.60;100495.81;8303892;28;20046;-66
2023/06/14 11:44:42;;;;;;;4.43;1.70;;;;;;;32.93;33.95;100499.66;8304449;28;20056;-66
2023/06/14 11:48:43;;;;;;;3.13;1.60;;;;;;;32.98;34.79;100482.84;8305373;28;20050;-66
2023/06/14 11:52:43;;;;;;;3.67;1.70;;;;;;;33.55;34.61;100497.09;8303401;28;20288;-66
2023/06/14 11:56:44;;;;;;;2.60;1.70;;;;;;;33.76;35.09;100497.75;8306545;28;20431;-66
2023/06/14 12:00:48;;;;;;;3.50;1.52;;;;;;;32.98;37.01;100499.66;8309241;28;20042;-66
2023/06/14 12:04:48;;;;;;;4.05;1.92;;;;;;;33.06;35.51;100484.19;8304784;28;20048;-66
2023/06/14 12:08:50;;;;;;;2.70;1.60;;;;;;;32.67;36.60;100498.09;8305614;28;20046;-66
2023/06/14 12:12:50;;;;;;;3.40;1.75;;;;;;;31.30;39.07;100486.41;8303624;28;20045;-66
2023/06/14 12:16:51;;;;;;;5.85;1.80;;;;;;;29.14;41.34;100484.09;8303635;28;20061;-66
2023/06/14 12:20:51;;;;;;;4.57;1.77;;;;;;;28.09;43.19;100489.09;8305284;28;20048;-66
2023/06/14 12:24:52;;;;;;;2.70;1.60;;;;;;;27.54;44.04;100488.19;8302570;28;20292;-65
2023/06/14 12:28:52;;;;;;;4.68;2.45;;;;;;;27.69;44.92;100485.66;8303882;28;20478;-66
2023/06/14 12:32:53;;;;;;;2.75;1.50;;;;;;;28.04;44.41;100497.38;8305039;28;20045;-67
2023/06/14 12:36:54;;;;;;;4.30;1.88;;;;;;;27.62;43.09;100496.06;8303052;28;20073;-60
2023/06/14 12:40:55;;;;;;;3.97;1.60;;;;;;;27.23;42.19;100489.53;8304706;28;20046;-60
2023/06/14 12:44:56;;;;;;;2.08;1.88;;;;;;;27.40;42.78;100487.66;8304553;28;20539;-60
2023/06/14 12:48:56;;;;;;;2.45;1.90;;;;;;;28.16;41.45;100481.41;8302316;28;20069;-61
2023/06/14 12:52:56;;;;;;;2.72;1.38;;;;;;;28.12;44.11;100485.81;8304968;28;20499;-60
2023/06/14 12:56:57;;;;;;;4.37;1.80;;;;;;;27.55;42.88;100481.53;8271634;28;20038;-60
2023/06/14 13:00:57;;;;;;;3.90;1.67;;;;;;;27.23;43.38;100491.47;8270719;28;20300;-60
2023/06/14 13:04:58;;;;;;;7.60;1.90;;;;;;;27.53;43.44;100486.50;8271371;28;20046;-60
2023/06/14 13:09:00;;;;;;;8.57;2.08;;;;;;;27.92;41.35;100479.94;8269010;28;20117;-61
2023/06/14 13:13:02;;;;;;;2.15;1.58;;;;;;;27.68;41.24;100472.84;8268979;28;20530;-60
2023/06/14 13:17:03;;;;;;;2.38;1.90;;;;;;;27.85;43.22;100484.81;8289698;28;20041;-60
2023/06/14 13:21:03;;;;;;;2.90;1.45;;;;;;;27.71;43.08;100489.00;8272596;28;20066;-61
2023/06/14 13:25:04;;;;;;;1.85;1.67;;;;;;;27.16;43.21;100490.78;8267081;28;20053;-60
2023/06/14 13:29:05;;;;;;;1.92;1.77;;;;;;;27.23;43.71;100485.94;8268361;28;20053;-60
2023/06/14 13:33:05;;;;;;;2.03;1.42;;;;;;;27.37;43.42;100476.19;8273789;28;20347;-66
2023/06/14 13:37:05;;;;;;;6.07;1.48;;;;;;;27.49;44.17;100483.38;8268766;28;20052;-67
2023/06/14 13:41:06;;;;;;;2.35;1.20;;;;;;;27.39;42.81;100490.69;8269619;28;20050;-66
2023/06/14 13:45:07;;;;;;;4.57;1.27;;;;;;;27.28;43.00;100488.81;8270763;28;20045;-68
2023/06/14 13:49:08;;;;;;;3.47;1.27;;;;;;;27.07;42.78;100486.75;8267995;28;20290;-66
2023/06/14 13:53:09;;;;;;;1.90;1.10;;;;;;;26.76;43.52;100486.13;8267852;28;20120;-67
2023/06/14 13:57:12;;;;;;;2.53;1.20;;;;;;;26.58;43.36;100494.59;8269344;28;20126;-67
2023/06/14 14:01:13;;;;;;;4.03;0.88;;;;;;;27.06;44.10;100490.59;8291571;28;20041;-66
2023/06/14 14:05:13;;;;;;;5.15;1.50;;;;;;;27.20;42.37;100497.53;8300247;28;20104;-66
2023/06/14 14:09:14;;;;;;;2.45;0.95;;;;;;;27.08;42.10;100488.41;8308175;28;20069;-67
2023/06/14 14:13:14;;;;;;;4.82;1.00;;;;;;;27.09;43.11;100485.38;8305224;28;20049;-67
2023/06/14 14:17:14;;;;;;;1.70;0.90;;;;;;;27.08;42.08;100483.69;8309023;28;20052;-66
2023/06/14 14:21:15;;;;;;;4.65;1.08;;;;;;;27.10;42.92;100483.44;8296020;28;20802;-67
2023/06/14 14:25:15;;;;;;;1.90;0.88;;;;;;;27.23;42.77;100491.47;8292615;28;20034;-67
2023/06/14 14:29:16;;;;;;;1.33;1.00;;;;;;;26.92;43.07;100497.53;8302400;28;20100;-66
2023/06/14 14:33:18;;;;;;;5.88;0.90;;;;;;;26.98;43.22;100493.78;8305230;28;20052;-65
2023/06/14 14:37:19;;;;;;;1.48;1.20;;;;;;;26.98;43.99;100482.69;8312407;28;20052;-66
2023/06/14 14:41:19;;;;;;;1.27;1.10;;;;;;;27.13;43.57;100489.34;8305622;28;20045;-66
2023/06/14 14:45:20;;;;;;;2.00;1.30;;;;;;;26.94;42.37;100482.31;8303639;28;20505;-66
2023/06/14 14:49:20;;;;;;;1.42;1.20;;;;;;;26.67;42.05;100501.47;8302715;28;20112;-66
2023/06/14 14:53:21;;;;;;;1.85;1.20;;;;;;;26.70;41.92;100491.81;8304242;28;20044;-66
2023/06/14 14:57:21;;;;;;;2.67;1.20;;;;;;;26.79;43.19;100496.75;8298240;28;20574;-66
2023/06/14 15:01:22;;;;;;;2.22;1.25;;;;;;;26.89;43.94;100495.25;8308652;28;20038;-67
2023/06/14 15:05:22;;;;;;;2.38;1.50;;;;;;;26.62;43.59;100506.91;8317731;28;20038;-66
2023/06/14 15:09:23;;;;;;;1.60;1.30;;;;;;;26.36;42.84;100501.03;8308159;28;20045;-66
2023/06/14 15:13:23;;;;;;;2.85;1.50;;;;;;;26.42;43.70;100495.34;8306850;28;20041;-66
2023/06/14 15:17:24;;;;;;;3.45;1.35;;;;;;;26.67;43.60;100503.41;8307590;28;20132;-66
2023/06/14 15:21:24;;;;;;;2.45;1.40;;;;;;;26.56;43.49;100502.31;8301662;28;20052;-66
2023/06/14 15:25:27;;;;;;;1.70;1.35;;;;;;;26.62;42.85;100506.91;8306488;28;20124;-66
2023/06/14 15:29:27;;;;;;;1.85;1.67;;;;;;;26.83;42.86;100495.16;8303389;28;20083;-66
2023/06/14 15:33:28;;;;;;;2.13;1.20;;;;;;;26.61;43.14;100501.56;8304710;28;20041;-66
2023/06/14 15:37:28;;;;;;;4.95;1.42;;;;;;;26.51;43.38;100516.09;8304564;28;20038;-66
2023/06/14 15:41:28;;;;;;;2.37;1.37;;;;;;;26.50;44.23;100514.38;8308690;28;20488;-67
2023/06/14 15:45:29;;;;;;;2.17;1.48;;;;;;;26.62;43.24;100512.47;8306730;28;20288;-59
2023/06/14 15:49:29;;;;;;;4.80;1.40;;;;;;;26.44;43.84;100507.03;8299376;28;20179;-59
2023/06/14 15:53:30;;;;;;;2.28;1.45;;;;;;;26.39;43.80;100501.41;8318522;28;20278;-65
2023/06/14 15:57:30;;;;;;;3.13;1.30;;;;;;;26.51;43.36;100493.91;8305229;28;20524;-65
2023/06/14 16:01:31;;;;;;;3.00;1.55;;;;;;;26.70;44.14;100509.31;8308239;28;20128;-64
2023/06/14 16:05:32;;;;;;;1.92;1.25;;;;;;;26.44;42.87;100498.72;8306536;28;20458;-65
2023/06/14 16:09:33;;;;;;;2.35;1.50;;;;;;;26.37;43.00;100498.00;8308630;28;20038;-65
2023/06/14 16:13:33;;;;;;;4.72;1.67;;;;;;;26.44;44.03;100498.72;8309821;28;20535;-65
2023/06/14 16:17:34;;;;;;;2.15;1.48;;;;;;;26.34;43.57;100498.50;8304778;28;20447;-65
2023/06/14 16:21:36;;;;;;;2.38;1.13;;;;;;;26.38;43.42;100499.69;8305774;28;20045;-65
2023/06/14 16:25:36;;;;;;;1.75;1.40;;;;;;;26.22;43.85;100494.91;8307109;28;20051;-64
2023/06/14 16:29:37;;;;;;;2.22;1.60;;;;;;;26.28;43.40;100502.25;8308876;28;20144;-65
2023/06/14 16:33:37;;;;;;;2.30;1.58;;;;;;;26.25;44.53;100499.97;8308344;28;20041;-65
2023/06/14 16:37:38;;;;;;;2.45;1.50;;;;;;;26.24;44.48;100508.50;8307456;28;20045;-65
2023/06/14 16:41:38;;;;;;;2.25;1.77;;;;;;;26.16;43.64;100506.94;8306253;28;20034;-64
2023/06/14 16:45:39;;;;;;;1.60;1.50;;;;;;;26.09;43.01;100517.31;8308597;28;20087;-65
2023/06/14 16:49:39;;;;;;;1.63;1.40;;;;;;;26.02;43.92;100505.53;8307751;28;20511;-65
2023/06/14 16:53:40;;;;;;;1.95;1.42;;;;;;;26.18;43.71;100507.56;8303667;28;20038;-65
2023/06/14 16:57:40;;;;;;;2.40;1.48;;;;;;;26.14;43.74;100502.75;8304708;28;20471;-65
2023/06/14 17:01:41;;;;;;;3.20;1.63;;;;;;;26.16;44.04;100520.81;8309119;28;20033;-65
2023/06/14 17:05:57;;;;;;;17.93;2.20;;;;;;;26.09;44.15;100517.31;8306028;28;20132;-65
2023/06/14 17:09:57;;;;;;;3.72;1.30;;;;;;;25.95;44.41;100518.59;8304949;28;20309;-65
2023/06/14 17:13:58;;;;;;;2.60;1.38;;;;;;;25.98;43.77;100532.00;8306158;28;20048;-64
2023/06/14 17:17:58;;;;;;;5.13;1.60;;;;;;;25.79;43.87;100533.19;8305658;28;20038;-64
2023/06/14 17:21:58;;;;;;;2.17;1.35;;;;;;;25.85;43.79;100526.69;8306672;28;20044;-64
2023/06/14 17:25:59;;;;;;;2.30;1.73;;;;;;;25.80;44.09;100537.63;8304196;28;20037;-64
2023/06/14 17:30:00;;;;;;;1.92;1.42;;;;;;;25.81;44.80;100536.56;8306468;28;20095;-64
2023/06/14 17:34:00;;;;;;;2.75;1.67;;;;;;;25.85;45.13;100537.75;8301639;28;20056;-64
2023/06/14 17:38:01;;;;;;;1.70;1.45;;;;;;;25.74;44.00;100541.34;8306462;28;20061;-59
2023/06/14 17:42:02;;;;;;;2.80;1.98;;;;;;;25.68;44.51;100550.59;8304853;28;20578;-59
2023/06/14 17:46:02;;;;;;;1.70;1.60;;;;;;;25.68;44.52;100547.84;8305371;28;20083;-59
2023/06/14 17:50:03;;;;;;;4.60;1.63;;;;;;;25.64;44.24;100546.63;8304583;28;20041;-59
2023/06/14 17:54:04;;;;;;;4.93;2.00;;;;;;;25.50;46.37;100545.19;8300553;28;20049;-59
2023/06/14 17:58:05;;;;;;;4.18;1.67;;;;;;;25.32;45.83;100542.47;8300612;28;20041;-59
2023/06/14 18:02:06;;;;;;;2.88;1.60;;;;;;;25.11;45.49;100540.19;8305668;28;20411;-58
2023/06/14 18:06:06;;;;;;;2.03;1.80;;;;;;;25.02;46.16;100559.03;8306674;28;20048;-61
2023/06/14 18:10:07;;;;;;;2.78;1.85;;;;;;;24.92;45.38;100547.66;8305927;28;20447;-58
2023/06/14 18:14:08;;;;;;;5.13;2.28;;;;;;;24.99;45.48;100562.28;8307124;28;20041;-59
2023/06/14 18:18:08;;;;;;;4.30;2.30;;;;;;;24.92;45.74;100557.91;8303218;28;20695;-59
2023/06/14 18:22:09;;;;;;;3.70;1.67;;;;;;;24.86;45.78;100565.19;8304653;28;20064;-59
2023/06/14 18:26:09;;;;;;;3.03;1.52;;;;;;;24.88;45.63;100564.97;8310247;28;20475;-58
2023/06/14 18:30:11;;;;;;;6.60;2.03;;;;;;;24.68;47.09;100572.66;8304808;28;20042;-64
2023/06/14 18:34:11;;;;;;;2.47;2.17;;;;;;;24.73;46.86;100572.84;8307234;28;20042;-64
2023/06/14 18:38:12;;;;;;;3.22;1.98;;;;;;;24.73;47.50;100586.66;8306646;28;20061;-64